Airfield :
LOGIN :

Register | Disclaimer

   EN    FR    IT 

 










Legend :    VFR   Marginal VFR   IFR   Intensive IFR   Very Intensive IFR
Visi :
Ceiling :
>= 8 km
>= 3000ft
5 to 8 km
1000 to 3000 ft
1500m to 5 km
500 to 1000 ft
800 to 1500m
200 to 500 ft
< 800m
< 200 ft
Symbols :   Thunderstorms  Fog  Heavy snow  Heavy precipitations  Wind > 20 kt
SIGMETs :     Misc.  Thunderstorms  Icing  Turbulence  Mountain Waves  Volcanic Ashes






- Airport Elevation : 670 ft
- IATA code : MSQ


UMMS - Minsk - 2

CURRENT METAR :
  • 131700Z 14007G10MPS CAVOK 09/06 Q1013 R88/D NOSIG

EXPIRED METARs :
  • 131630Z 14008G11MPS CAVOK 09/06 Q1013 R88/CLRD// NOSIG
  • 131600Z 14006G12MPS CAVOK 09/06 Q1013 R88/D NOSIG
  • 131530Z 13008G11MPS CAVOK 10/06 Q1013 R88/CLRD// NOSIG
  • 131500Z 14008G11MPS CAVOK 11/07 Q1013 R88/D NOSIG
  • 131430Z 14008G11MPS CAVOK 11/07 Q1013 R88/D NOSIG

TAF TAF UMMS
Valid from the 13 at 12:00 until the 14 at 12:00 UTC


131105Z 1312/1412 15008G13MPS 9999 BKN015
TEMPO 1312/1319 17010G15MPS
TEMPO 1319/1406 18009G14MPS 2000 BR BKN004



MET'MAP, your aeronautical weather chart ! - Copyright ORBIFLY December 2007 - Disclaimer

ORBIFLY MET'MAP TEAM :

Programming & Development : Alexandra Zaïnal
Concept & Development : Baudouin d'Aumeries
Co-Development & Prog : Marc-Olivier Méhu
Technical & hardware support : Manuel Goepfert

Contact : metmap@orbifly.com




SOURCES & CREDITS :

   NOAA